sensor_id;sensor_type;location;lat;lon;timestamp;temperature;humidity
12837;DHT22;6485;51.472;5.268;2023-06-24T00:01:41;19.00;99.90
12837;DHT22;6485;51.472;5.268;2023-06-24T00:04:10;19.00;99.90
12837;DHT22;6485;51.472;5.268;2023-06-24T00:06:38;18.90;99.90
12837;DHT22;6485;51.472;5.268;2023-06-24T00:09:06;18.90;99.90
12837;DHT22;6485;51.472;5.268;2023-06-24T00:11:34;19.00;99.90
12837;DHT22;6485;51.472;5.268;2023-06-24T00:14:02;19.00;99.90
12837;DHT22;6485;51.472;5.268;2023-06-24T00:16:30;19.00;99.90
12837;DHT22;6485;51.472;5.268;2023-06-24T00:18:58;19.00;99.90
12837;DHT22;6485;51.472;5.268;2023-06-24T00:21:28;19.00;99.90
12837;DHT22;6485;51.472;5.268;2023-06-24T00:23:56;19.00;99.90
12837;DHT22;6485;51.472;5.268;2023-06-24T00:26:24;19.00;99.90
12837;DHT22;6485;51.472;5.268;2023-06-24T00:28:52;19.00;99.90
12837;DHT22;6485;51.472;5.268;2023-06-24T00:31:20;18.90;99.90
12837;DHT22;6485;51.472;5.268;2023-06-24T00:33:48;18.90;99.90
12837;DHT22;6485;51.472;5.268;2023-06-24T00:36:18;18.90;99.90
12837;DHT22;6485;51.472;5.268;2023-06-24T00:38:48;18.90;99.90
12837;DHT22;6485;51.472;5.268;2023-06-24T00:41:16;18.90;99.90
12837;DHT22;6485;51.472;5.268;2023-06-24T00:43:44;18.90;99.90
12837;DHT22;6485;51.472;5.268;2023-06-24T00:46:12;18.90;99.90
12837;DHT22;6485;51.472;5.268;2023-06-24T00:48:42;18.90;99.90
12837;DHT22;6485;51.472;5.268;2023-06-24T00:51:10;18.80;99.90
12837;DHT22;6485;51.472;5.268;2023-06-24T00:53:37;18.80;99.90
12837;DHT22;6485;51.472;5.268;2023-06-24T00:56:07;18.80;99.90
12837;DHT22;6485;51.472;5.268;2023-06-24T00:58:35;18.70;99.90
12837;DHT22;6485;51.472;5.268;2023-06-24T01:01:04;18.70;99.90
12837;DHT22;6485;51.472;5.268;2023-06-24T01:03:35;18.60;99.90
12837;DHT22;6485;51.472;5.268;2023-06-24T01:06:03;18.50;99.90
12837;DHT22;6485;51.472;5.268;2023-06-24T01:08:32;18.40;99.90
12837;DHT22;6485;51.472;5.268;2023-06-24T01:11:00;18.40;99.90
12837;DHT22;6485;51.472;5.268;2023-06-24T01:13:29;18.30;99.90
12837;DHT22;6485;51.472;5.268;2023-06-24T01:15:57;18.20;99.90
12837;DHT22;6485;51.472;5.268;2023-06-24T01:18:30;18.20;99.90
12837;DHT22;6485;51.472;5.268;2023-06-24T01:21:02;18.20;99.90
12837;DHT22;6485;51.472;5.268;2023-06-24T01:26:21;18.10;99.90
12837;DHT22;6485;51.472;5.268;2023-06-24T01:28:59;18.10;99.90
12837;DHT22;6485;51.472;5.268;2023-06-24T01:31:32;18.10;99.90
12837;DHT22;6485;51.472;5.268;2023-06-24T01:34:02;18.10;99.90
12837;DHT22;6485;51.472;5.268;2023-06-24T01:36:34;18.00;99.90
12837;DHT22;6485;51.472;5.268;2023-06-24T01:39:03;18.00;99.90
12837;DHT22;6485;51.472;5.268;2023-06-24T01:41:32;18.00;99.90
12837;DHT22;6485;51.472;5.268;2023-06-24T01:44:01;17.90;99.90
12837;DHT22;6485;51.472;5.268;2023-06-24T01:46:32;17.80;99.90
12837;DHT22;6485;51.472;5.268;2023-06-24T01:49:01;17.80;99.90
12837;DHT22;6485;51.472;5.268;2023-06-24T01:51:30;17.70;99.90
12837;DHT22;6485;51.472;5.268;2023-06-24T01:54:00;17.60;99.90
12837;DHT22;6485;51.472;5.268;2023-06-24T01:56:28;17.60;99.90
12837;DHT22;6485;51.472;5.268;2023-06-24T01:58:57;17.60;99.90
12837;DHT22;6485;51.472;5.268;2023-06-24T02:01:26;17.50;99.90
12837;DHT22;6485;51.472;5.268;2023-06-24T02:03:56;17.50;99.90
12837;DHT22;6485;51.472;5.268;2023-06-24T02:06:24;17.50;99.90
12837;DHT22;6485;51.472;5.268;2023-06-24T02:08:54;17.50;99.90
12837;DHT22;6485;51.472;5.268;2023-06-24T02:11:22;17.50;99.90
12837;DHT22;6485;51.472;5.268;2023-06-24T02:13:51;17.40;99.90
12837;DHT22;6485;51.472;5.268;2023-06-24T02:16:21;17.40;99.90
12837;DHT22;6485;51.472;5.268;2023-06-24T02:18:49;17.30;99.90
12837;DHT22;6485;51.472;5.268;2023-06-24T02:21:20;17.30;99.90
12837;DHT22;6485;51.472;5.268;2023-06-24T02:23:48;17.20;99.90
12837;DHT22;6485;51.472;5.268;2023-06-24T02:26:16;17.20;99.90
12837;DHT22;6485;51.472;5.268;2023-06-24T02:28:45;17.10;99.90
12837;DHT22;6485;51.472;5.268;2023-06-24T02:31:14;17.10;99.90
12837;DHT22;6485;51.472;5.268;2023-06-24T02:33:42;17.00;99.90
12837;DHT22;6485;51.472;5.268;2023-06-24T02:36:10;17.00;99.90
12837;DHT22;6485;51.472;5.268;2023-06-24T02:38:39;17.00;99.90
12837;DHT22;6485;51.472;5.268;2023-06-24T02:41:07;16.90;99.90
12837;DHT22;6485;51.472;5.268;2023-06-24T02:43:35;16.90;99.90
12837;DHT22;6485;51.472;5.268;2023-06-24T02:46:03;16.90;99.90
12837;DHT22;6485;51.472;5.268;2023-06-24T02:48:32;16.90;99.90
12837;DHT22;6485;51.472;5.268;2023-06-24T02:51:00;16.80;99.90
12837;DHT22;6485;51.472;5.268;2023-06-24T02:53:29;16.80;99.90
12837;DHT22;6485;51.472;5.268;2023-06-24T02:55:58;16.70;99.90
12837;DHT22;6485;51.472;5.268;2023-06-24T02:58:26;16.70;99.90
12837;DHT22;6485;51.472;5.268;2023-06-24T03:00:58;16.70;99.90
12837;DHT22;6485;51.472;5.268;2023-06-24T03:03:27;16.70;99.90
12837;DHT22;6485;51.472;5.268;2023-06-24T03:05:55;16.70;99.90
12837;DHT22;6485;51.472;5.268;2023-06-24T03:08:24;16.60;99.90
12837;DHT22;6485;51.472;5.268;2023-06-24T03:10:54;16.60;99.90
12837;DHT22;6485;51.472;5.268;2023-06-24T03:13:23;16.60;99.90
12837;DHT22;6485;51.472;5.268;2023-06-24T03:15:51;16.50;99.90
12837;DHT22;6485;51.472;5.268;2023-06-24T03:18:19;16.50;99.90
12837;DHT22;6485;51.472;5.268;2023-06-24T03:20:47;16.50;99.90
12837;DHT22;6485;51.472;5.268;2023-06-24T03:23:15;16.50;99.90
12837;DHT22;6485;51.472;5.268;2023-06-24T03:25:43;16.50;99.90
12837;DHT22;6485;51.472;5.268;2023-06-24T03:28:11;16.40;99.90
12837;DHT22;6485;51.472;5.268;2023-06-24T03:30:40;16.40;99.90
12837;DHT22;6485;51.472;5.268;2023-06-24T03:33:08;16.40;99.90
12837;DHT22;6485;51.472;5.268;2023-06-24T03:35:36;16.40;99.90
12837;DHT22;6485;51.472;5.268;2023-06-24T03:38:04;16.40;99.90
12837;DHT22;6485;51.472;5.268;2023-06-24T03:40:31;16.40;99.90
12837;DHT22;6485;51.472;5.268;2023-06-24T03:42:59;16.40;99.90
12837;DHT22;6485;51.472;5.268;2023-06-24T03:45:27;16.30;99.90
12837;DHT22;6485;51.472;5.268;2023-06-24T03:47:56;16.30;99.90
12837;DHT22;6485;51.472;5.268;2023-06-24T03:50:24;16.20;99.90
12837;DHT22;6485;51.472;5.268;2023-06-24T03:52:52;16.30;99.90
12837;DHT22;6485;51.472;5.268;2023-06-24T03:55:20;16.30;99.90
12837;DHT22;6485;51.472;5.268;2023-06-24T03:57:47;16.30;99.90
12837;DHT22;6485;51.472;5.268;2023-06-24T04:00:18;16.30;99.90
12837;DHT22;6485;51.472;5.268;2023-06-24T04:02:47;16.30;99.90
12837;DHT22;6485;51.472;5.268;2023-06-24T04:05:17;16.30;99.90
12837;DHT22;6485;51.472;5.268;2023-06-24T04:07:44;16.30;99.90
12837;DHT22;6485;51.472;5.268;2023-06-24T04:10:13;16.30;99.90
12837;DHT22;6485;51.472;5.268;2023-06-24T04:12:41;16.30;99.90
12837;DHT22;6485;51.472;5.268;2023-06-24T04:15:09;16.30;99.90
12837;DHT22;6485;51.472;5.268;2023-06-24T04:17:38;16.30;99.90
12837;DHT22;6485;51.472;5.268;2023-06-24T04:20:06;16.30;99.90
12837;DHT22;6485;51.472;5.268;2023-06-24T04:22:37;16.30;99.90
12837;DHT22;6485;51.472;5.268;2023-06-24T04:25:05;16.30;99.90
12837;DHT22;6485;51.472;5.268;2023-06-24T04:27:33;16.30;99.90
12837;DHT22;6485;51.472;5.268;2023-06-24T04:30:02;16.40;99.90
12837;DHT22;6485;51.472;5.268;2023-06-24T04:32:30;16.40;99.90
12837;DHT22;6485;51.472;5.268;2023-06-24T04:34:58;16.40;99.90
12837;DHT22;6485;51.472;5.268;2023-06-24T04:37:27;16.40;99.90
12837;DHT22;6485;51.472;5.268;2023-06-24T04:39:56;16.50;99.90
12837;DHT22;6485;51.472;5.268;2023-06-24T04:42:24;16.50;99.90
12837;DHT22;6485;51.472;5.268;2023-06-24T04:44:52;16.50;99.90
12837;DHT22;6485;51.472;5.268;2023-06-24T04:47:20;16.50;99.90
12837;DHT22;6485;51.472;5.268;2023-06-24T04:49:48;16.50;99.90
12837;DHT22;6485;51.472;5.268;2023-06-24T04:52:16;16.50;99.90
12837;DHT22;6485;51.472;5.268;2023-06-24T04:54:43;16.60;99.90
12837;DHT22;6485;51.472;5.268;2023-06-24T04:57:22;16.70;99.90
12837;DHT22;6485;51.472;5.268;2023-06-24T04:59:50;16.70;99.90
12837;DHT22;6485;51.472;5.268;2023-06-24T05:02:18;16.80;99.90
12837;DHT22;6485;51.472;5.268;2023-06-24T05:04:46;16.90;99.90
12837;DHT22;6485;51.472;5.268;2023-06-24T05:07:14;17.00;99.90
12837;DHT22;6485;51.472;5.268;2023-06-24T05:09:42;17.10;99.90
12837;DHT22;6485;51.472;5.268;2023-06-24T05:12:10;17.20;99.90
12837;DHT22;6485;51.472;5.268;2023-06-24T05:14:39;17.30;99.90
12837;DHT22;6485;51.472;5.268;2023-06-24T05:17:07;17.40;99.90
12837;DHT22;6485;51.472;5.268;2023-06-24T05:19:35;17.50;99.90
12837;DHT22;6485;51.472;5.268;2023-06-24T05:22:03;17.70;99.90
12837;DHT22;6485;51.472;5.268;2023-06-24T05:24:31;17.80;99.90
12837;DHT22;6485;51.472;5.268;2023-06-24T05:27:03;17.90;99.90
12837;DHT22;6485;51.472;5.268;2023-06-24T05:29:31;17.90;99.90
12837;DHT22;6485;51.472;5.268;2023-06-24T05:32:00;18.10;99.90
12837;DHT22;6485;51.472;5.268;2023-06-24T05:34:30;18.10;99.90
12837;DHT22;6485;51.472;5.268;2023-06-24T05:36:58;18.20;99.90
12837;DHT22;6485;51.472;5.268;2023-06-24T05:39:26;18.30;99.90
12837;DHT22;6485;51.472;5.268;2023-06-24T05:41:53;18.40;99.90
12837;DHT22;6485;51.472;5.268;2023-06-24T05:44:21;18.50;99.90
12837;DHT22;6485;51.472;5.268;2023-06-24T05:46:49;18.60;99.90
12837;DHT22;6485;51.472;5.268;2023-06-24T05:49:19;18.70;99.90
12837;DHT22;6485;51.472;5.268;2023-06-24T05:51:47;18.80;99.90
12837;DHT22;6485;51.472;5.268;2023-06-24T05:54:15;18.90;99.90
12837;DHT22;6485;51.472;5.268;2023-06-24T05:56:42;19.00;99.90
12837;DHT22;6485;51.472;5.268;2023-06-24T05:59:10;19.00;99.90
12837;DHT22;6485;51.472;5.268;2023-06-24T06:01:38;19.10;97.00
12837;DHT22;6485;51.472;5.268;2023-06-24T06:04:06;19.20;99.90
12837;DHT22;6485;51.472;5.268;2023-06-24T06:06:35;19.20;73.70
12837;DHT22;6485;51.472;5.268;2023-06-24T06:09:03;19.30;93.70
12837;DHT22;6485;51.472;5.268;2023-06-24T06:11:31;19.40;55.50
12837;DHT22;6485;51.472;5.268;2023-06-24T06:13:59;19.50;52.30
12837;DHT22;6485;51.472;5.268;2023-06-24T06:16:26;19.60;1.00
12837;DHT22;6485;51.472;5.268;2023-06-24T06:18:55;19.70;1.00
12837;DHT22;6485;51.472;5.268;2023-06-24T06:21:23;19.70;1.00
12837;DHT22;6485;51.472;5.268;2023-06-24T06:23:52;19.80;1.00
12837;DHT22;6485;51.472;5.268;2023-06-24T06:26:20;19.90;1.00
12837;DHT22;6485;51.472;5.268;2023-06-24T06:28:50;20.00;1.00
12837;DHT22;6485;51.472;5.268;2023-06-24T06:31:20;20.00;1.00
12837;DHT22;6485;51.472;5.268;2023-06-24T06:33:49;20.10;1.00
12837;DHT22;6485;51.472;5.268;2023-06-24T06:36:17;20.20;1.00
12837;DHT22;6485;51.472;5.268;2023-06-24T06:38:45;20.30;99.90
12837;DHT22;6485;51.472;5.268;2023-06-24T06:41:14;20.40;99.90
12837;DHT22;6485;51.472;5.268;2023-06-24T06:43:42;20.50;99.90
12837;DHT22;6485;51.472;5.268;2023-06-24T06:46:10;20.60;99.90
12837;DHT22;6485;51.472;5.268;2023-06-24T06:48:38;20.60;8.30
12837;DHT22;6485;51.472;5.268;2023-06-24T06:51:06;20.70;1.00
12837;DHT22;6485;51.472;5.268;2023-06-24T06:53:33;20.80;31.00
12837;DHT22;6485;51.472;5.268;2023-06-24T06:56:01;20.90;1.00
12837;DHT22;6485;51.472;5.268;2023-06-24T06:58:31;21.00;1.00
12837;DHT22;6485;51.472;5.268;2023-06-24T07:00:58;21.00;1.00
12837;DHT22;6485;51.472;5.268;2023-06-24T07:03:31;21.20;99.90
12837;DHT22;6485;51.472;5.268;2023-06-24T07:05:59;21.30;1.00
12837;DHT22;6485;51.472;5.268;2023-06-24T07:08:27;21.40;1.00
12837;DHT22;6485;51.472;5.268;2023-06-24T07:10:56;21.40;1.00
12837;DHT22;6485;51.472;5.268;2023-06-24T07:13:23;21.50;41.50
12837;DHT22;6485;51.472;5.268;2023-06-24T07:15:53;21.60;99.90
12837;DHT22;6485;51.472;5.268;2023-06-24T07:18:20;21.70;1.00
12837;DHT22;6485;51.472;5.268;2023-06-24T07:20:48;21.80;1.00
12837;DHT22;6485;51.472;5.268;2023-06-24T07:23:16;22.00;99.90
12837;DHT22;6485;51.472;5.268;2023-06-24T07:25:44;22.10;1.00
12837;DHT22;6485;51.472;5.268;2023-06-24T07:28:12;22.30;1.00
12837;DHT22;6485;51.472;5.268;2023-06-24T07:30:40;22.40;1.00
12837;DHT22;6485;51.472;5.268;2023-06-24T07:33:09;22.40;99.90
12837;DHT22;6485;51.472;5.268;2023-06-24T07:35:37;22.60;1.00
12837;DHT22;6485;51.472;5.268;2023-06-24T07:38:05;22.60;99.90
12837;DHT22;6485;51.472;5.268;2023-06-24T07:40:32;22.80;1.00
12837;DHT22;6485;51.472;5.268;2023-06-24T07:43:00;22.80;1.00
12837;DHT22;6485;51.472;5.268;2023-06-24T07:45:28;22.90;1.00
12837;DHT22;6485;51.472;5.268;2023-06-24T07:47:56;23.00;99.90
12837;DHT22;6485;51.472;5.268;2023-06-24T07:50:25;23.10;99.90
12837;DHT22;6485;51.472;5.268;2023-06-24T07:52:53;23.10;64.90
12837;DHT22;6485;51.472;5.268;2023-06-24T07:55:21;23.10;36.60
12837;DHT22;6485;51.472;5.268;2023-06-24T07:57:49;23.20;1.00
12837;DHT22;6485;51.472;5.268;2023-06-24T08:00:17;23.20;1.00
12837;DHT22;6485;51.472;5.268;2023-06-24T08:02:45;23.20;92.10
12837;DHT22;6485;51.472;5.268;2023-06-24T08:05:13;23.30;1.00
12837;DHT22;6485;51.472;5.268;2023-06-24T08:07:42;23.30;99.90
12837;DHT22;6485;51.472;5.268;2023-06-24T08:10:10;23.40;1.00
12837;DHT22;6485;51.472;5.268;2023-06-24T08:12:38;23.50;1.00
12837;DHT22;6485;51.472;5.268;2023-06-24T08:15:06;23.60;99.90
12837;DHT22;6485;51.472;5.268;2023-06-24T08:17:34;23.70;99.90
12837;DHT22;6485;51.472;5.268;2023-06-24T08:20:02;23.70;1.00
12837;DHT22;6485;51.472;5.268;2023-06-24T08:22:30;23.70;1.00
12837;DHT22;6485;51.472;5.268;2023-06-24T08:25:00;23.80;1.00
12837;DHT22;6485;51.472;5.268;2023-06-24T08:27:28;23.80;1.00
12837;DHT22;6485;51.472;5.268;2023-06-24T08:29:56;24.00;1.00
12837;DHT22;6485;51.472;5.268;2023-06-24T08:32:24;24.10;1.00
12837;DHT22;6485;51.472;5.268;2023-06-24T08:34:52;24.10;1.00
12837;DHT22;6485;51.472;5.268;2023-06-24T08:37:19;24.20;87.90
12837;DHT22;6485;51.472;5.268;2023-06-24T08:39:47;24.20;1.00
12837;DHT22;6485;51.472;5.268;2023-06-24T08:42:16;24.10;1.00
12837;DHT22;6485;51.472;5.268;2023-06-24T08:44:44;24.20;99.90
12837;DHT22;6485;51.472;5.268;2023-06-24T08:47:12;24.40;1.00
12837;DHT22;6485;51.472;5.268;2023-06-24T08:49:45;24.50;99.90
12837;DHT22;6485;51.472;5.268;2023-06-24T08:52:15;24.50;43.40
12837;DHT22;6485;51.472;5.268;2023-06-24T08:54:45;24.50;1.00
12837;DHT22;6485;51.472;5.268;2023-06-24T08:57:13;24.50;1.00
12837;DHT22;6485;51.472;5.268;2023-06-24T08:59:43;24.70;1.00
12837;DHT22;6485;51.472;5.268;2023-06-24T09:02:11;24.80;99.90
12837;DHT22;6485;51.472;5.268;2023-06-24T09:04:40;24.80;25.00
12837;DHT22;6485;51.472;5.268;2023-06-24T09:07:08;24.80;1.00
12837;DHT22;6485;51.472;5.268;2023-06-24T09:09:41;24.80;99.90
12837;DHT22;6485;51.472;5.268;2023-06-24T09:12:10;24.90;99.90
12837;DHT22;6485;51.472;5.268;2023-06-24T09:14:41;25.00;99.90
12837;DHT22;6485;51.472;5.268;2023-06-24T09:17:10;25.00;99.90
12837;DHT22;6485;51.472;5.268;2023-06-24T09:19:38;25.10;1.00
12837;DHT22;6485;51.472;5.268;2023-06-24T09:22:06;25.10;1.00
12837;DHT22;6485;51.472;5.268;2023-06-24T09:24:35;25.00;1.00
12837;DHT22;6485;51.472;5.268;2023-06-24T09:27:03;25.10;43.60
12837;DHT22;6485;51.472;5.268;2023-06-24T09:29:32;25.10;1.00
12837;DHT22;6485;51.472;5.268;2023-06-24T09:32:03;25.20;1.00
12837;DHT22;6485;51.472;5.268;2023-06-24T09:34:32;25.20;99.90
12837;DHT22;6485;51.472;5.268;2023-06-24T09:37:00;25.30;1.00
12837;DHT22;6485;51.472;5.268;2023-06-24T09:39:30;25.30;1.00
12837;DHT22;6485;51.472;5.268;2023-06-24T09:42:02;25.10;99.90
12837;DHT22;6485;51.472;5.268;2023-06-24T09:44:31;24.90;99.90
12837;DHT22;6485;51.472;5.268;2023-06-24T09:46:59;24.80;99.90
12837;DHT22;6485;51.472;5.268;2023-06-24T09:49:28;24.80;99.90
12837;DHT22;6485;51.472;5.268;2023-06-24T09:51:57;24.90;99.90
12837;DHT22;6485;51.472;5.268;2023-06-24T09:54:26;25.00;99.90
12837;DHT22;6485;51.472;5.268;2023-06-24T09:57:02;25.00;99.90
12837;DHT22;6485;51.472;5.268;2023-06-24T09:59:30;24.90;99.90
12837;DHT22;6485;51.472;5.268;2023-06-24T10:02:00;24.80;99.90
12837;DHT22;6485;51.472;5.268;2023-06-24T10:04:30;24.90;99.90
12837;DHT22;6485;51.472;5.268;2023-06-24T10:07:00;25.00;99.90
12837;DHT22;6485;51.472;5.268;2023-06-24T10:09:29;25.20;99.90
12837;DHT22;6485;51.472;5.268;2023-06-24T10:11:57;25.30;99.90
12837;DHT22;6485;51.472;5.268;2023-06-24T10:14:25;25.30;99.90
12837;DHT22;6485;51.472;5.268;2023-06-24T10:17:00;25.30;99.90
12837;DHT22;6485;51.472;5.268;2023-06-24T10:19:28;25.40;99.90
12837;DHT22;6485;51.472;5.268;2023-06-24T10:21:57;25.40;99.90
12837;DHT22;6485;51.472;5.268;2023-06-24T10:24:30;25.10;99.90
12837;DHT22;6485;51.472;5.268;2023-06-24T10:27:01;25.10;99.90
12837;DHT22;6485;51.472;5.268;2023-06-24T10:29:33;25.30;99.90
12837;DHT22;6485;51.472;5.268;2023-06-24T10:32:04;25.20;99.90
12837;DHT22;6485;51.472;5.268;2023-06-24T10:34:33;25.30;99.90
12837;DHT22;6485;51.472;5.268;2023-06-24T10:37:02;25.40;99.90
12837;DHT22;6485;51.472;5.268;2023-06-24T10:39:47;25.40;99.90
12837;DHT22;6485;51.472;5.268;2023-06-24T10:42:25;25.40;99.90
12837;DHT22;6485;51.472;5.268;2023-06-24T10:44:54;25.40;99.90
12837;DHT22;6485;51.472;5.268;2023-06-24T10:47:22;25.50;99.90
12837;DHT22;6485;51.472;5.268;2023-06-24T10:49:50;25.70;99.90
12837;DHT22;6485;51.472;5.268;2023-06-24T10:52:19;25.80;99.90
12837;DHT22;6485;51.472;5.268;2023-06-24T10:54:49;25.90;99.90
12837;DHT22;6485;51.472;5.268;2023-06-24T10:57:21;25.90;99.90
12837;DHT22;6485;51.472;5.268;2023-06-24T10:59:49;25.90;99.90
12837;DHT22;6485;51.472;5.268;2023-06-24T11:02:18;26.10;99.90
12837;DHT22;6485;51.472;5.268;2023-06-24T11:04:46;26.20;99.90
12837;DHT22;6485;51.472;5.268;2023-06-24T11:07:16;26.30;99.90
12837;DHT22;6485;51.472;5.268;2023-06-24T11:09:48;26.30;99.90
12837;DHT22;6485;51.472;5.268;2023-06-24T11:12:17;26.40;99.90
12837;DHT22;6485;51.472;5.268;2023-06-24T11:14:45;26.40;99.90
12837;DHT22;6485;51.472;5.268;2023-06-24T11:17:13;26.50;99.90
12837;DHT22;6485;51.472;5.268;2023-06-24T11:19:40;26.40;99.90
12837;DHT22;6485;51.472;5.268;2023-06-24T11:22:10;26.30;99.90
12837;DHT22;6485;51.472;5.268;2023-06-24T11:24:38;26.40;99.90
12837;DHT22;6485;51.472;5.268;2023-06-24T11:27:08;26.30;99.90
12837;DHT22;6485;51.472;5.268;2023-06-24T11:29:37;26.40;99.90
12837;DHT22;6485;51.472;5.268;2023-06-24T11:32:07;26.30;99.90
12837;DHT22;6485;51.472;5.268;2023-06-24T11:34:35;26.20;99.90
12837;DHT22;6485;51.472;5.268;2023-06-24T11:37:10;26.20;99.90
12837;DHT22;6485;51.472;5.268;2023-06-24T11:39:39;26.30;99.90
12837;DHT22;6485;51.472;5.268;2023-06-24T11:42:07;26.30;99.90
12837;DHT22;6485;51.472;5.268;2023-06-24T11:44:40;26.20;99.90
12837;DHT22;6485;51.472;5.268;2023-06-24T11:47:08;26.10;99.90
12837;DHT22;6485;51.472;5.268;2023-06-24T11:49:49;26.20;99.90
12837;DHT22;6485;51.472;5.268;2023-06-24T11:52:17;26.20;99.90
12837;DHT22;6485;51.472;5.268;2023-06-24T11:54:45;26.40;99.90
12837;DHT22;6485;51.472;5.268;2023-06-24T11:57:17;26.60;99.90
12837;DHT22;6485;51.472;5.268;2023-06-24T11:59:47;26.70;99.90
12837;DHT22;6485;51.472;5.268;2023-06-24T12:02:19;26.60;99.90
12837;DHT22;6485;51.472;5.268;2023-06-24T12:04:47;26.50;99.90
12837;DHT22;6485;51.472;5.268;2023-06-24T12:07:15;26.50;99.90
12837;DHT22;6485;51.472;5.268;2023-06-24T12:09:43;26.70;99.90
12837;DHT22;6485;51.472;5.268;2023-06-24T12:12:12;26.60;99.90
12837;DHT22;6485;51.472;5.268;2023-06-24T12:14:40;26.80;99.90
12837;DHT22;6485;51.472;5.268;2023-06-24T12:17:09;26.60;99.90
12837;DHT22;6485;51.472;5.268;2023-06-24T12:19:37;26.70;99.90
12837;DHT22;6485;51.472;5.268;2023-06-24T12:22:04;26.80;99.90
12837;DHT22;6485;51.472;5.268;2023-06-24T12:24:32;26.80;99.90
12837;DHT22;6485;51.472;5.268;2023-06-24T12:27:01;27.00;99.90
12837;DHT22;6485;51.472;5.268;2023-06-24T12:29:29;26.90;99.90
12837;DHT22;6485;51.472;5.268;2023-06-24T12:31:57;26.70;96.10
12837;DHT22;6485;51.472;5.268;2023-06-24T12:34:26;26.80;99.90
12837;DHT22;6485;51.472;5.268;2023-06-24T12:36:54;26.70;92.80
12837;DHT22;6485;51.472;5.268;2023-06-24T12:39:22;26.70;94.90
12837;DHT22;6485;51.472;5.268;2023-06-24T12:41:49;26.60;78.90
12837;DHT22;6485;51.472;5.268;2023-06-24T12:44:18;26.60;94.20
12837;DHT22;6485;51.472;5.268;2023-06-24T12:46:46;26.50;73.90
12837;DHT22;6485;51.472;5.268;2023-06-24T12:49:13;26.40;90.80
12837;DHT22;6485;51.472;5.268;2023-06-24T12:51:42;26.50;95.80
12837;DHT22;6485;51.472;5.268;2023-06-24T12:54:10;26.50;93.30
12837;DHT22;6485;51.472;5.268;2023-06-24T12:56:38;26.50;91.40
12837;DHT22;6485;51.472;5.268;2023-06-24T12:59:06;26.70;99.90
12837;DHT22;6485;51.472;5.268;2023-06-24T13:01:34;26.80;99.90
12837;DHT22;6485;51.472;5.268;2023-06-24T13:04:02;26.90;99.90
12837;DHT22;6485;51.472;5.268;2023-06-24T13:06:30;26.90;96.90
12837;DHT22;6485;51.472;5.268;2023-06-24T13:08:59;26.90;98.40
12837;DHT22;6485;51.472;5.268;2023-06-24T13:11:27;26.70;83.80
12837;DHT22;6485;51.472;5.268;2023-06-24T13:13:55;26.80;99.90
12837;DHT22;6485;51.472;5.268;2023-06-24T13:16:22;26.90;78.10
12837;DHT22;6485;51.472;5.268;2023-06-24T13:18:51;26.90;87.60
12837;DHT22;6485;51.472;5.268;2023-06-24T13:21:18;26.90;89.90
12837;DHT22;6485;51.472;5.268;2023-06-24T13:23:47;26.70;58.00
12837;DHT22;6485;51.472;5.268;2023-06-24T13:26:17;26.80;67.40
12837;DHT22;6485;51.472;5.268;2023-06-24T13:28:44;26.90;53.30
12837;DHT22;6485;51.472;5.268;2023-06-24T13:31:12;26.90;62.80
12837;DHT22;6485;51.472;5.268;2023-06-24T13:33:42;26.70;35.20
12837;DHT22;6485;51.472;5.268;2023-06-24T13:36:13;26.70;39.50
12837;DHT22;6485;51.472;5.268;2023-06-24T13:38:53;26.80;67.20
12837;DHT22;6485;51.472;5.268;2023-06-24T13:41:22;26.80;59.40
12837;DHT22;6485;51.472;5.268;2023-06-24T13:43:50;26.90;45.20
12837;DHT22;6485;51.472;5.268;2023-06-24T13:46:19;26.90;47.20
12837;DHT22;6485;51.472;5.268;2023-06-24T13:48:46;26.80;18.40
12837;DHT22;6485;51.472;5.268;2023-06-24T13:51:14;26.80;49.10
12837;DHT22;6485;51.472;5.268;2023-06-24T13:53:42;26.80;28.20
12837;DHT22;6485;51.472;5.268;2023-06-24T13:56:10;26.90;34.40
12837;DHT22;6485;51.472;5.268;2023-06-24T13:58:39;26.90;39.60
12837;DHT22;6485;51.472;5.268;2023-06-24T14:01:07;26.80;18.10
12837;DHT22;6485;51.472;5.268;2023-06-24T14:03:35;26.80;18.40
12837;DHT22;6485;51.472;5.268;2023-06-24T14:06:03;26.70;15.90
12837;DHT22;6485;51.472;5.268;2023-06-24T14:08:31;26.70;40.80
12837;DHT22;6485;51.472;5.268;2023-06-24T14:11:00;26.70;30.50
12837;DHT22;6485;51.472;5.268;2023-06-24T14:13:28;26.90;32.70
12837;DHT22;6485;51.472;5.268;2023-06-24T14:15:57;26.90;26.00
12837;DHT22;6485;51.472;5.268;2023-06-24T14:18:25;26.90;33.10
12837;DHT22;6485;51.472;5.268;2023-06-24T14:20:53;27.00;40.00
12837;DHT22;6485;51.472;5.268;2023-06-24T14:23:20;27.00;31.90
12837;DHT22;6485;51.472;5.268;2023-06-24T14:25:48;27.00;31.60
12837;DHT22;6485;51.472;5.268;2023-06-24T14:28:16;27.00;39.00
12837;DHT22;6485;51.472;5.268;2023-06-24T14:30:44;27.10;40.20
12837;DHT22;6485;51.472;5.268;2023-06-24T14:33:14;27.20;54.10
12837;DHT22;6485;51.472;5.268;2023-06-24T14:35:42;27.10;31.00
12837;DHT22;6485;51.472;5.268;2023-06-24T14:38:10;27.00;25.90
12837;DHT22;6485;51.472;5.268;2023-06-24T14:40:38;26.90;10.30
12837;DHT22;6485;51.472;5.268;2023-06-24T14:43:06;26.80;50.70
12837;DHT22;6485;51.472;5.268;2023-06-24T14:45:34;26.80;57.40
12837;DHT22;6485;51.472;5.268;2023-06-24T14:48:01;26.80;58.50
12837;DHT22;6485;51.472;5.268;2023-06-24T14:50:31;26.80;27.80
12837;DHT22;6485;51.472;5.268;2023-06-24T14:52:59;26.70;13.80
12837;DHT22;6485;51.472;5.268;2023-06-24T14:55:27;26.70;26.80
12837;DHT22;6485;51.472;5.268;2023-06-24T14:57:55;26.70;7.40
12837;DHT22;6485;51.472;5.268;2023-06-24T15:00:23;26.70;4.90
12837;DHT22;6485;51.472;5.268;2023-06-24T15:02:51;26.70;1.00
12837;DHT22;6485;51.472;5.268;2023-06-24T15:05:19;26.70;1.00
12837;DHT22;6485;51.472;5.268;2023-06-24T15:07:48;26.80;1.00
12837;DHT22;6485;51.472;5.268;2023-06-24T15:10:16;26.80;1.00
12837;DHT22;6485;51.472;5.268;2023-06-24T15:12:44;26.70;1.00
12837;DHT22;6485;51.472;5.268;2023-06-24T15:15:12;26.90;1.00
12837;DHT22;6485;51.472;5.268;2023-06-24T15:17:40;27.00;1.00
12837;DHT22;6485;51.472;5.268;2023-06-24T15:20:11;27.00;1.00
12837;DHT22;6485;51.472;5.268;2023-06-24T15:22:40;27.00;1.00
12837;DHT22;6485;51.472;5.268;2023-06-24T15:25:09;27.10;1.00
12837;DHT22;6485;51.472;5.268;2023-06-24T15:27:37;27.30;15.60
12837;DHT22;6485;51.472;5.268;2023-06-24T15:30:05;27.00;16.00
12837;DHT22;6485;51.472;5.268;2023-06-24T15:32:33;27.00;3.70
12837;DHT22;6485;51.472;5.268;2023-06-24T15:35:01;26.90;1.00
12837;DHT22;6485;51.472;5.268;2023-06-24T15:37:29;26.90;1.00
12837;DHT22;6485;51.472;5.268;2023-06-24T15:39:57;27.00;1.00
12837;DHT22;6485;51.472;5.268;2023-06-24T15:42:26;27.00;1.00
12837;DHT22;6485;51.472;5.268;2023-06-24T15:44:54;27.00;1.00
12837;DHT22;6485;51.472;5.268;2023-06-24T15:47:22;27.00;1.00
12837;DHT22;6485;51.472;5.268;2023-06-24T15:49:50;27.00;1.00
12837;DHT22;6485;51.472;5.268;2023-06-24T15:52:18;27.00;1.00
12837;DHT22;6485;51.472;5.268;2023-06-24T15:54:46;27.00;1.00
12837;DHT22;6485;51.472;5.268;2023-06-24T15:57:14;27.10;1.00
12837;DHT22;6485;51.472;5.268;2023-06-24T15:59:43;27.20;1.00
12837;DHT22;6485;51.472;5.268;2023-06-24T16:02:11;27.20;1.00